createdAt,value
2017-04-27T00:00:03.229Z,3.5
2017-04-27T00:05:03.441Z,3.2
2017-04-27T00:10:03.293Z,3.2
2017-04-27T00:15:02.966Z,3.2
2017-04-27T00:20:02.686Z,3.2
2017-04-27T00:25:03.333Z,3.2
2017-04-27T00:30:03.080Z,3.2
2017-04-27T00:35:02.856Z,3.0
2017-04-27T00:40:02.633Z,3.0
2017-04-27T00:45:03.406Z,3.0
2017-04-27T00:50:03.176Z,3.0
2017-04-27T00:55:02.800Z,2.9
2017-04-27T01:00:02.424Z,2.9
2017-04-27T01:05:03.294Z,2.9
2017-04-27T01:10:03.113Z,2.7
2017-04-27T01:15:02.916Z,2.7
2017-04-27T01:20:02.511Z,2.7
2017-04-27T01:25:03.209Z,2.5
2017-04-27T01:30:02.904Z,2.5
2017-04-27T01:35:02.577Z,2.5
2017-04-27T01:40:03.209Z,2.5
2017-04-27T01:45:02.902Z,2.5
2017-04-27T01:50:02.627Z,2.5
2017-04-27T01:55:03.245Z,2.4
2017-04-27T02:00:02.866Z,2.4
2017-04-27T02:05:02.501Z,2.4
2017-04-27T02:10:03.232Z,2.0
2017-04-27T02:15:02.869Z,1.8
2017-04-27T02:20:02.610Z,1.8
2017-04-27T02:25:03.254Z,1.7
2017-04-27T02:30:02.993Z,1.7
2017-04-27T02:35:02.544Z,1.6
2017-04-27T02:40:03.183Z,1.3
2017-04-27T02:45:02.937Z,1.3
2017-04-27T02:50:02.655Z,1.2
2017-04-27T02:55:03.272Z,1.2
2017-04-27T03:00:02.967Z,1.1
2017-04-27T03:05:02.732Z,1.2
2017-04-27T03:10:02.573Z,1.1
2017-04-27T03:15:03.273Z,0.7
2017-04-27T03:20:02.438Z,0.8
2017-04-27T03:25:03.063Z,0.8
2017-04-27T03:30:02.653Z,0.7
2017-04-27T03:35:03.319Z,0.6
2017-04-27T03:40:03.025Z,0.4
2017-04-27T03:45:02.751Z,0.4
2017-04-27T03:50:03.358Z,0.4
2017-04-27T03:55:03.115Z,0.4
2017-04-27T04:00:02.753Z,0.4
2017-04-27T04:05:02.824Z,0.6
2017-04-27T04:10:02.756Z,0.6
2017-04-27T04:15:02.484Z,0.4
2017-04-27T04:20:03.140Z,0.3
2017-04-27T04:25:02.822Z,0.1
2017-04-27T04:30:02.734Z,0.1
2017-04-27T04:35:02.416Z,0.3
2017-04-27T04:40:02.993Z,0.3
2017-04-27T04:45:02.728Z,0.6
2017-04-27T04:50:03.433Z,0.6
2017-04-27T04:55:03.160Z,0.7
2017-04-27T05:00:02.938Z,0.8
2017-04-27T05:05:02.720Z,1.1
2017-04-27T05:10:02.483Z,1.1
2017-04-27T05:15:03.258Z,1.2
2017-04-27T05:20:02.969Z,1.3
2017-04-27T05:25:02.582Z,1.6
2017-04-27T05:30:03.342Z,1.7
2017-04-27T05:35:02.948Z,1.8
2017-04-27T05:40:02.639Z,2.0
2017-04-27T05:45:03.243Z,2.4
2017-04-27T05:50:03.030Z,2.2
2017-04-27T05:55:02.693Z,2.5
2017-04-27T06:00:03.381Z,2.7
2017-04-27T06:05:02.974Z,2.9
2017-04-27T06:10:02.647Z,2.9
2017-04-27T06:15:03.422Z,3.2
2017-04-27T06:20:03.112Z,3.2
2017-04-27T06:25:02.749Z,3.7
2017-04-27T06:30:02.548Z,4.0
2017-04-27T06:35:03.344Z,4.0
2017-04-27T06:40:03.202Z,4.0
2017-04-27T06:45:02.851Z,4.5
2017-04-27T06:50:02.469Z,4.5
2017-04-27T06:55:03.204Z,5.0
2017-04-27T07:00:02.873Z,5.0
2017-04-27T07:05:02.786Z,5.4
2017-04-27T07:10:02.571Z,5.5
2017-04-27T07:15:03.330Z,5.9
2017-04-27T07:20:02.981Z,5.9
2017-04-27T07:25:03.233Z,6.4
2017-04-27T07:30:03.187Z,6.6
2017-04-27T07:35:02.825Z,6.9
2017-04-27T07:40:02.723Z,7.0
2017-04-27T07:45:03.410Z,7.0
2017-04-27T07:50:03.202Z,7.6
2017-04-27T07:55:02.871Z,7.6
2017-04-27T08:00:02.817Z,8.1
2017-04-27T08:05:02.808Z,9.0
2017-04-27T08:10:02.459Z,9.1
2017-04-27T08:15:03.227Z,10.6
2017-04-27T08:20:03.027Z,11.0
2017-04-27T08:25:02.745Z,10.8
2017-04-27T08:30:03.373Z,9.6
2017-04-27T08:35:03.013Z,8.6
2017-04-27T08:40:02.667Z,8.5
2017-04-27T08:45:03.328Z,8.5
2017-04-27T08:50:03.016Z,10.1
2017-04-27T08:55:02.588Z,11.6
2017-04-27T09:00:03.312Z,10.8
2017-04-27T09:05:03.084Z,10.1
2017-04-27T09:10:02.799Z,9.1
2017-04-27T09:15:02.745Z,10.1
2017-04-27T09:20:02.483Z,11.3
2017-04-27T09:25:03.309Z,12.1
2017-04-27T09:30:02.911Z,11.6
2017-04-27T09:35:02.577Z,12.1
2017-04-27T09:40:03.385Z,11.3
2017-04-27T09:45:03.157Z,11.6
2017-04-27T09:50:02.805Z,10.1
2017-04-27T09:55:02.645Z,10.0
2017-04-27T10:00:03.264Z,9.5
2017-04-27T10:05:02.843Z,10.1
2017-04-27T10:10:02.675Z,11.6
2017-04-27T10:15:02.499Z,12.8
2017-04-27T10:20:03.263Z,12.1
2017-04-27T10:25:02.890Z,13.3
2017-04-27T10:30:02.705Z,14.0
2017-04-27T10:35:03.338Z,14.5
2017-04-27T10:40:02.993Z,12.6
2017-04-27T10:45:02.716Z,12.8
2017-04-27T10:50:02.710Z,11.3
2017-04-27T10:55:02.622Z,11.1
2017-04-27T11:00:02.648Z,11.8
2017-04-27T11:05:03.328Z,11.6
2017-04-27T11:10:03.207Z,10.8
2017-04-27T11:15:02.981Z,10.6
2017-04-27T11:20:02.651Z,11.3
2017-04-27T11:25:03.301Z,10.8
2017-04-27T11:30:03.113Z,11.0
2017-04-27T11:35:02.889Z,11.0
2017-04-27T11:40:02.587Z,14.3
2017-04-27T11:45:02.530Z,12.6
2017-04-27T11:50:03.307Z,12.1
2017-04-27T11:55:03.139Z,11.6
2017-04-27T12:00:02.994Z,11.0
2017-04-27T12:05:02.760Z,10.3
2017-04-27T12:10:02.414Z,10.3
2017-04-27T12:15:03.082Z,12.8
2017-04-27T12:20:02.812Z,14.3
2017-04-27T12:25:02.491Z,14.3
2017-04-27T12:30:03.188Z,13.6
2017-04-27T12:35:03.237Z,13.8
2017-04-27T12:40:02.933Z,12.8
2017-04-27T12:45:02.617Z,16.2
2017-04-27T12:50:02.560Z,15.3
2017-04-27T12:55:03.372Z,12.1
2017-04-27T13:00:02.643Z,10.5
2017-04-27T13:05:02.886Z,10.0
2017-04-27T13:10:02.828Z,9.6
2017-04-27T13:15:02.980Z,9.3
2017-04-27T13:20:03.353Z,9.3
2017-04-27T13:25:02.545Z,9.3
2017-04-27T13:30:03.214Z,9.1
2017-04-27T13:35:03.005Z,10.0
2017-04-27T13:40:02.716Z,10.3
2017-04-27T13:45:02.521Z,10.6
2017-04-27T13:50:03.415Z,11.1
2017-04-27T13:55:03.037Z,11.6
2017-04-27T14:00:02.878Z,12.0
2017-04-27T14:05:02.739Z,13.6
2017-04-27T14:10:02.452Z,13.3
2017-04-27T14:15:03.083Z,13.1
2017-04-27T14:20:02.894Z,13.5
2017-04-27T14:25:02.604Z,13.5
2017-04-27T14:30:03.350Z,12.8
2017-04-27T14:35:03.373Z,11.6
2017-04-27T14:40:03.150Z,10.8
2017-04-27T14:45:02.893Z,10.6
2017-04-27T14:50:02.471Z,10.0
2017-04-27T14:55:03.348Z,9.3
2017-04-27T15:00:02.532Z,9.1
2017-04-27T15:05:03.127Z,9.1
2017-04-27T15:10:03.170Z,8.8
2017-04-27T15:15:03.011Z,8.8
2017-04-27T15:20:02.732Z,8.8
2017-04-27T15:25:02.579Z,8.8
2017-04-27T15:30:02.436Z,9.0
2017-04-27T15:35:03.118Z,9.1
2017-04-27T15:40:02.791Z,9.5
2017-04-27T15:45:02.563Z,9.8
2017-04-27T15:50:03.436Z,9.6
2017-04-27T15:55:03.039Z,10.0
2017-04-27T16:00:02.912Z,10.1
2017-04-27T16:05:02.492Z,10.0
2017-04-27T16:10:03.355Z,10.1
2017-04-27T16:15:03.154Z,10.0
2017-04-27T16:20:02.778Z,10.1
2017-04-27T16:25:02.530Z,10.1
2017-04-27T16:30:03.218Z,10.1
2017-04-27T16:35:02.839Z,10.1
2017-04-27T16:40:02.705Z,10.0
2017-04-27T16:45:03.425Z,10.1
2017-04-27T16:50:03.164Z,10.1
2017-04-27T16:55:02.808Z,10.0
2017-04-27T17:00:02.565Z,9.8
2017-04-27T17:05:03.433Z,9.8
2017-04-27T17:10:03.178Z,9.6
2017-04-27T17:15:02.878Z,10.0
2017-04-27T17:20:02.536Z,10.5
2017-04-27T17:25:03.071Z,10.1
2017-04-27T17:30:02.695Z,10.1
2017-04-27T17:35:03.338Z,10.8
2017-04-27T17:40:03.197Z,11.3
2017-04-27T17:45:02.848Z,11.1
2017-04-27T17:50:02.575Z,11.8
2017-04-27T17:55:03.343Z,11.6
2017-04-27T18:00:03.031Z,11.6
2017-04-27T18:05:02.633Z,11.3
2017-04-27T18:10:03.289Z,11.0
2017-04-27T18:15:02.859Z,10.1
2017-04-27T18:20:02.643Z,9.5
2017-04-27T18:25:03.374Z,9.0
2017-04-27T18:30:02.959Z,9.0
2017-04-27T18:35:02.656Z,8.6
2017-04-27T18:40:02.556Z,8.1
2017-04-27T18:45:03.197Z,8.1
2017-04-27T18:50:02.923Z,8.0
2017-04-27T18:55:02.592Z,7.6
2017-04-27T19:00:03.276Z,7.4
2017-04-27T19:05:03.095Z,7.4
2017-04-27T19:10:02.989Z,7.1
2017-04-27T19:15:02.874Z,7.0
2017-04-27T19:20:02.725Z,6.9
2017-04-27T19:25:03.406Z,6.6
2017-04-27T19:30:03.036Z,6.6
2017-04-27T19:35:02.836Z,6.5
2017-04-27T19:40:02.542Z,6.4
2017-04-27T19:45:03.335Z,6.1
2017-04-27T19:50:03.065Z,6.0
2017-04-27T19:55:02.751Z,6.0
2017-04-27T20:00:02.483Z,5.9
2017-04-27T20:05:03.380Z,5.9
2017-04-27T20:10:03.058Z,6.0
2017-04-27T20:15:02.808Z,5.9
2017-04-27T20:20:02.422Z,5.5
2017-04-27T20:25:03.022Z,5.9
2017-04-27T20:30:02.771Z,5.8
2017-04-27T20:35:02.603Z,5.5
2017-04-27T20:40:02.426Z,5.4
2017-04-27T20:45:03.264Z,5.3
2017-04-27T20:50:03.010Z,4.5
2017-04-27T20:55:02.781Z,4.5
2017-04-27T21:00:02.509Z,4.3
2017-04-27T21:05:03.398Z,4.3
2017-04-27T21:10:03.196Z,4.3
2017-04-27T21:15:02.969Z,4.3
2017-04-27T21:20:02.756Z,4.3
2017-04-27T21:25:02.418Z,4.3
2017-04-27T21:30:03.233Z,3.7
2017-04-27T21:35:03.097Z,4.0
2017-04-27T21:40:02.817Z,3.7
2017-04-27T21:45:02.624Z,4.0
2017-04-27T21:50:03.272Z,4.0
2017-04-27T21:55:03.088Z,3.7
2017-04-27T22:00:02.730Z,3.7
2017-04-27T22:05:02.516Z,3.7
2017-04-27T22:10:03.248Z,3.7
2017-04-27T22:15:02.857Z,3.7
2017-04-27T22:20:02.617Z,3.5
2017-04-27T22:25:03.399Z,3.7
2017-04-27T22:30:03.005Z,3.7
2017-04-27T22:35:02.671Z,3.7
2017-04-27T22:40:02.500Z,3.7
2017-04-27T22:45:03.188Z,3.5
2017-04-27T22:50:02.946Z,3.2
2017-04-27T22:55:05.572Z,3.2
2017-04-27T23:00:03.279Z,3.2
2017-04-27T23:05:02.989Z,3.2
2017-04-27T23:10:02.801Z,3.5
2017-04-27T23:15:02.474Z,3.7
2017-04-27T23:20:03.136Z,3.7
2017-04-27T23:25:02.788Z,3.7
2017-04-27T23:30:02.413Z,3.2
2017-04-27T23:35:03.207Z,3.5
2017-04-27T23:40:02.999Z,3.2
2017-04-27T23:45:02.733Z,3.2
2017-04-27T23:50:02.424Z,3.2
2017-04-27T23:55:03.184Z,3.2
